Time;durP1;ratioP1;P1;durP2;ratioP2;P2;SDS_P1;SDS_P2;PMS_P1;PMS_P2;Temp;Humidity;BMP_temperature;BMP_pressure;BME280_temperature;BME280_humidity;BME280_pressure;Samples;Min_cycle;Max_cycle;Signal;HPM_P1;HPM_P2
2022/03/21 00:00:52;;;;;;;28.70;14.00;;;;;;;-0.35;45.29;100960.64;222737;1270;22964;-71
2022/03/21 00:05:56;;;;;;;33.50;16.70;;;;;;;-0.50;45.45;100960.41;222558;1269;24266;-71
2022/03/21 00:10:59;;;;;;;32.10;16.90;;;;;;;-0.60;45.46;100963.23;222362;1271;25786;-71
2022/03/21 00:16:02;;;;;;;38.40;18.80;;;;;;;-0.65;45.47;100962.02;222695;1270;23971;-72
2022/03/21 00:21:07;;;;;;;41.40;20.20;;;;;;;-0.68;45.47;100964.42;222623;1270;23057;-72
2022/03/21 00:26:15;;;;;;;34.50;18.00;;;;;;;-0.69;45.43;100961.49;222439;1270;24298;-70
2022/03/21 00:31:17;;;;;;;40.00;19.90;;;;;;;-0.72;45.88;100968.46;222824;1270;22472;-72
2022/03/21 00:36:20;;;;;;;39.10;19.00;;;;;;;-0.76;46.18;100961.92;222621;1270;22588;-71
2022/03/21 00:41:42;;;;;;;38.50;18.90;;;;;;;-0.84;46.22;100957.30;222588;1270;25277;-71
2022/03/21 00:46:44;;;;;;;36.00;17.90;;;;;;;-0.92;46.13;100956.51;222535;1271;22623;-71
2022/03/21 00:51:46;;;;;;;32.90;16.60;;;;;;;-1.00;45.99;100954.16;222631;1270;22540;-71
2022/03/21 00:56:48;;;;;;;32.50;16.90;;;;;;;-1.08;46.39;100956.06;222465;1270;22605;-71
2022/03/21 01:01:50;;;;;;;34.50;16.40;;;;;;;-1.17;46.28;100952.21;222763;1270;22673;-71
2022/03/21 01:06:53;;;;;;;36.90;17.70;;;;;;;-1.21;46.43;100953.90;222769;1268;23091;-71
2022/03/21 01:11:56;;;;;;;34.90;16.90;;;;;;;-1.23;46.68;100948.98;222632;1270;24067;-72
2022/03/21 01:16:58;;;;;;;38.80;18.50;;;;;;;-1.17;46.98;100951.00;222358;1270;22918;-71
2022/03/21 01:22:00;;;;;;;54.40;23.60;;;;;;;-0.99;47.47;100948.83;222702;1269;22702;-72
2022/03/21 01:27:04;;;;;;;39.70;19.60;;;;;;;-0.94;47.21;100945.16;222654;1270;25429;-70
2022/03/21 01:32:20;;;;;;;38.30;19.70;;;;;;;-0.96;47.33;100946.55;222760;1270;24010;-71
2022/03/21 01:37:32;;;;;;;35.80;17.70;;;;;;;-0.99;47.28;100942.88;222558;1270;22641;-72
2022/03/21 01:42:36;;;;;;;37.40;17.90;;;;;;;-1.03;47.55;100932.77;222385;1270;23865;-72
2022/03/21 01:47:39;;;;;;;37.40;19.70;;;;;;;-1.03;47.71;100929.05;222389;1270;25658;-69
2022/03/21 01:52:43;;;;;;;36.80;19.10;;;;;;;-1.01;47.75;100929.42;222562;1270;22717;-70
2022/03/21 01:57:47;;;;;;;33.30;17.20;;;;;;;-1.07;47.88;100922.61;222395;1269;22658;-71
2022/03/21 02:02:53;;;;;;;31.60;17.90;;;;;;;-1.16;48.11;100926.73;222613;1270;24347;-70
2022/03/21 02:07:56;;;;;;;30.10;15.70;;;;;;;-1.28;48.36;100924.71;222513;1270;22563;-71
2022/03/21 02:12:58;;;;;;;34.40;17.90;;;;;;;-1.33;48.44;100921.93;222453;1270;22564;-71
2022/03/21 02:18:02;;;;;;;37.30;17.40;;;;;;;-1.32;48.71;100923.11;222450;1270;22681;-70
2022/03/21 02:23:16;;;;;;;32.70;17.50;;;;;;;-1.35;48.74;100922.71;222841;1269;22593;-69
2022/03/21 02:28:19;;;;;;;30.80;16.50;;;;;;;-1.40;49.01;100920.19;222648;1271;22616;-72
2022/03/21 02:33:21;;;;;;;35.50;18.20;;;;;;;-1.44;48.96;100920.84;222733;1270;22678;-71
2022/03/21 02:38:25;;;;;;;40.80;20.00;;;;;;;-1.44;48.98;100919.21;222775;1270;22572;-71
2022/03/21 02:43:28;;;;;;;39.60;19.80;;;;;;;-1.45;49.07;100922.98;222574;1270;24267;-70
2022/03/21 02:48:30;;;;;;;33.50;18.70;;;;;;;-1.48;49.04;100925.11;222395;1271;23302;-71
2022/03/21 02:53:35;;;;;;;34.90;18.00;;;;;;;-1.57;49.21;100927.55;222445;1270;25392;-70
2022/03/21 02:58:37;;;;;;;32.00;16.60;;;;;;;-1.64;49.40;100933.33;222610;1270;25205;-71
2022/03/21 03:03:39;;;;;;;35.90;17.60;;;;;;;-1.73;49.63;100933.48;222533;1270;22840;-71
2022/03/21 03:08:44;;;;;;;37.10;18.90;;;;;;;-1.83;49.97;100936.62;222763;1271;22478;-71
2022/03/21 03:13:49;;;;;;;34.00;16.60;;;;;;;-1.93;49.97;100938.11;222503;1270;22645;-70
2022/03/21 03:18:51;;;;;;;38.10;18.50;;;;;;;-1.99;50.21;100938.88;222637;1271;24272;-70
2022/03/21 03:23:54;;;;;;;32.00;16.10;;;;;;;-2.02;50.58;100939.05;222570;1269;22536;-72
2022/03/21 03:28:59;;;;;;;37.50;17.10;;;;;;;-2.06;50.59;100933.33;222624;1269;22702;-71
2022/03/21 03:34:03;;;;;;;36.40;17.40;;;;;;;-2.07;50.90;100934.21;222869;1271;22586;-72
2022/03/21 03:39:06;;;;;;;33.00;16.80;;;;;;;-2.09;50.93;100933.27;222770;1271;23389;-71
2022/03/21 03:44:12;;;;;;;36.00;17.20;;;;;;;-2.16;50.91;100930.46;222861;1269;22534;-71
2022/03/21 03:49:14;;;;;;;30.40;16.40;;;;;;;-2.22;50.95;100924.90;222681;1270;22580;-71
2022/03/21 03:54:19;;;;;;;36.50;17.10;;;;;;;-2.27;51.11;100928.35;221035;1270;22606;-71
2022/03/21 03:59:21;;;;;;;37.20;17.60;;;;;;;-2.33;51.14;100925.14;222641;1270;22616;-71
2022/03/21 04:04:26;;;;;;;36.50;17.80;;;;;;;-2.40;51.21;100923.16;222592;1271;22703;-71
2022/03/21 04:09:28;;;;;;;32.60;16.70;;;;;;;-2.49;51.35;100926.45;222522;1270;22601;-74
2022/03/21 04:14:30;;;;;;;35.90;18.00;;;;;;;-2.53;51.55;100922.48;222496;1271;22615;-72
2022/03/21 04:19:32;;;;;;;32.10;16.50;;;;;;;-2.53;51.68;100929.33;222638;1270;22637;-71
2022/03/21 04:24:35;;;;;;;31.50;16.40;;;;;;;-2.52;51.83;100928.90;222562;1271;22563;-71
2022/03/21 04:29:46;;;;;;;36.00;17.90;;;;;;;-2.52;52.05;100930.11;222606;1271;25386;-70
2022/03/21 04:34:48;;;;;;;36.20;17.40;;;;;;;-2.56;52.24;100927.66;222638;1271;22605;-69
2022/03/21 04:39:53;;;;;;;37.30;19.30;;;;;;;-2.62;52.38;100933.27;222618;1270;25359;-72
2022/03/21 04:44:56;;;;;;;37.20;18.50;;;;;;;-2.63;52.52;100935.36;222555;1270;23037;-71
2022/03/21 04:49:59;;;;;;;39.20;20.40;;;;;;;-2.68;52.70;100942.44;222607;1271;25317;-71
2022/03/21 04:55:09;;;;;;;34.50;18.30;;;;;;;-2.77;53.01;100943.52;222400;1271;24959;-73
2022/03/21 05:00:16;;;;;;;37.90;19.20;;;;;;;-2.81;53.47;100944.45;222556;1270;22667;-70
2022/03/21 05:05:35;;;;;;;39.60;19.20;;;;;;;-2.84;53.71;100946.59;222632;1271;23127;-71
2022/03/21 05:10:38;;;;;;;45.30;22.30;;;;;;;-2.87;53.93;100946.59;222548;1271;22693;-71
2022/03/21 05:15:40;;;;;;;42.80;21.40;;;;;;;-2.87;54.05;100951.44;222512;1270;25366;-72
2022/03/21 05:20:44;;;;;;;41.00;21.60;;;;;;;-2.84;54.19;100950.79;222570;1269;22525;-71
2022/03/21 05:31:11;;;;;;;41.40;20.00;;;;;;;-2.62;54.25;100958.36;222649;1270;25356;-72
2022/03/21 05:36:13;;;;;;;38.00;19.70;;;;;;;-2.53;54.27;100965.04;222630;1270;23457;-71
2022/03/21 05:41:17;;;;;;;40.40;21.30;;;;;;;-2.38;54.43;100963.23;222937;1270;22739;-72
2022/03/21 05:46:19;;;;;;;42.70;20.80;;;;;;;-2.27;54.47;100964.89;222743;1270;22826;-71
2022/03/21 05:51:27;;;;;;;43.40;21.20;;;;;;;-2.15;54.61;100970.92;222588;1270;22778;-72
2022/03/21 05:56:32;;;;;;;45.00;23.10;;;;;;;-2.01;54.66;100976.07;222552;1270;25360;-72
2022/03/21 06:01:34;;;;;;;46.30;23.50;;;;;;;-1.88;54.89;100974.91;222386;1270;22556;-72
2022/03/21 06:06:37;;;;;;;38.10;20.50;;;;;;;-1.71;55.05;100977.83;222572;1268;22471;-71
2022/03/21 06:11:39;;;;;;;47.60;24.60;;;;;;;-1.53;55.52;100983.90;222597;1270;22527;-71
2022/03/21 06:16:41;;;;;;;46.60;22.80;;;;;;;-1.25;55.77;100981.83;222611;1271;22637;-72
2022/03/21 06:21:43;;;;;;;48.30;26.20;;;;;;;-1.00;55.32;100982.20;222608;1270;23810;-69
2022/03/21 06:26:53;;;;;;;48.30;25.60;;;;;;;-0.70;55.19;100983.92;222640;1270;22686;-71
2022/03/21 06:31:55;;;;;;;51.50;26.50;;;;;;;-0.45;54.85;100990.29;222945;1269;22562;-70
2022/03/21 06:36:57;;;;;;;50.40;26.30;;;;;;;-0.24;54.30;100992.48;223196;1270;22686;-71
2022/03/21 06:42:00;;;;;;;61.60;29.70;;;;;;;-0.00;54.44;100992.55;223072;1270;25309;-73
2022/03/21 06:47:02;;;;;;;51.20;26.10;;;;;;;0.24;54.26;100995.02;222877;1270;22829;-71
2022/03/21 06:52:08;;;;;;;53.60;26.70;;;;;;;0.52;53.78;100999.77;222822;1270;22703;-71
2022/03/21 06:57:10;;;;;;;46.80;23.20;;;;;;;0.85;53.30;101000.05;223641;1268;22677;-73
2022/03/21 07:02:13;;;;;;;43.90;23.50;;;;;;;1.20;52.41;101005.51;223336;1270;22572;-71
2022/03/21 07:07:16;;;;;;;38.60;21.80;;;;;;;1.50;51.86;101009.80;223053;1268;22664;-72
2022/03/21 07:12:23;;;;;;;38.60;21.80;;;;;;;1.74;51.14;101008.66;223241;1270;23386;-70
2022/03/21 07:17:38;;;;;;;37.60;21.30;;;;;;;2.04;50.67;101014.56;223250;1270;22747;-71
2022/03/21 07:23:05;;;;;;;39.30;22.30;;;;;;;2.30;50.01;101013.09;223212;1269;478574;-71
2022/03/21 07:28:08;;;;;;;40.80;22.20;;;;;;;2.51;49.51;101012.15;223283;1270;22647;-71
2022/03/21 07:33:13;;;;;;;41.50;22.30;;;;;;;2.77;49.37;101014.33;223213;1268;23667;-71
2022/03/21 07:38:15;;;;;;;40.40;22.90;;;;;;;3.07;48.56;101012.05;222924;1268;22924;-71
2022/03/21 07:43:17;;;;;;;34.80;21.00;;;;;;;3.31;48.07;101009.16;223144;1268;22532;-72
2022/03/21 07:48:19;;;;;;;37.10;22.10;;;;;;;3.59;47.64;101009.24;223321;1270;24259;-72
2022/03/21 07:53:22;;;;;;;33.50;20.10;;;;;;;3.89;46.99;101005.91;223016;1268;22669;-72
2022/03/21 07:58:24;;;;;;;34.20;20.10;;;;;;;4.17;46.71;101008.06;223200;1268;22551;-72
2022/03/21 08:03:27;;;;;;;34.40;19.90;;;;;;;4.46;46.07;101012.65;223096;1268;22591;-72
2022/03/21 08:08:30;;;;;;;36.90;18.60;;;;;;;4.68;45.38;101004.43;223936;1271;22551;-72
2022/03/21 08:13:32;;;;;;;28.20;18.50;;;;;;;4.95;44.95;101002.42;223159;1270;23678;-71
2022/03/21 08:18:37;;;;;;;29.60;15.90;;;;;;;5.25;44.29;100999.09;223189;1270;23471;-72
2022/03/21 08:23:39;;;;;;;25.70;15.80;;;;;;;5.50;43.91;100994.19;223318;1268;23886;-72
2022/03/21 08:28:45;;;;;;;26.70;16.10;;;;;;;5.83;43.32;100991.23;223123;1268;22562;-71
2022/03/21 08:33:47;;;;;;;23.70;14.10;;;;;;;6.12;42.36;100992.23;223504;1269;24229;-72
2022/03/21 08:38:53;;;;;;;23.80;14.10;;;;;;;6.41;42.05;100993.91;223135;1270;24713;-72
2022/03/21 08:43:55;;;;;;;24.20;14.30;;;;;;;6.68;41.64;100990.06;223273;1270;23297;-71
2022/03/21 08:54:33;;;;;;;19.30;12.40;;;;;;;7.18;40.58;100981.91;223350;1269;24042;-71
2022/03/21 08:59:49;;;;;;;18.70;11.60;;;;;;;7.41;40.08;100977.48;223222;1269;22541;-72
2022/03/21 09:04:51;;;;;;;16.60;10.20;;;;;;;7.63;39.40;100979.89;223594;1268;23356;-72
2022/03/21 09:10:02;;;;;;;14.40;9.70;;;;;;;7.86;38.98;100981.58;223684;1268;23475;-72
2022/03/21 09:15:57;;;;;;;17.70;10.30;;;;;;;8.05;38.01;100977.31;223619;1270;22559;-71
2022/03/21 09:21:21;;;;;;;15.50;10.20;;;;;;;8.23;37.27;100974.79;223838;1270;22623;-71
2022/03/21 09:26:23;;;;;;;14.80;9.60;;;;;;;8.34;36.79;100973.41;223881;1269;22713;-71
2022/03/21 09:31:33;;;;;;;14.50;9.90;;;;;;;8.47;36.19;100974.10;224066;1269;23404;-70
2022/03/21 09:36:43;;;;;;;14.30;10.30;;;;;;;8.56;36.42;100968.69;222340;1269;22583;-69
2022/03/21 09:41:47;;;;;;;13.80;9.30;;;;;;;8.70;36.23;100962.08;221547;1270;22587;-70
2022/03/21 09:46:53;;;;;;;15.90;9.40;;;;;;;8.74;35.65;100963.06;221786;1270;24205;-70
2022/03/21 09:51:58;;;;;;;16.30;11.00;;;;;;;8.78;35.71;100957.47;222204;1270;25322;-71
2022/03/21 09:57:02;;;;;;;14.60;10.50;;;;;;;8.89;35.40;100952.74;221775;1268;22560;-70
2022/03/21 10:02:06;;;;;;;16.00;9.70;;;;;;;8.98;35.26;100946.31;224075;1268;23691;-71
2022/03/21 10:07:12;;;;;;;15.10;10.00;;;;;;;9.09;34.93;100941.44;223589;1270;22710;-69
2022/03/21 10:12:17;;;;;;;13.80;9.80;;;;;;;9.21;34.88;100942.92;221452;1271;22480;-70
2022/03/21 10:17:22;;;;;;;13.50;9.30;;;;;;;9.35;34.42;100940.64;223664;1270;24294;-70
2022/03/21 10:22:34;;;;;;;10.20;8.00;;;;;;;9.54;34.12;100934.86;223621;1270;23804;-70
2022/03/21 10:27:42;;;;;;;13.20;9.20;;;;;;;9.68;33.79;100933.45;223782;1268;22693;-70
2022/03/21 10:32:52;;;;;;;15.40;9.70;;;;;;;9.84;33.18;100927.00;221894;1270;23084;-70
2022/03/21 10:38:01;;;;;;;14.00;10.30;;;;;;;9.92;32.84;100924.31;222123;1268;25231;-71
2022/03/21 10:43:07;;;;;;;13.10;9.10;;;;;;;10.03;32.82;100920.98;223714;1269;24986;-71
2022/03/21 10:48:23;;;;;;;13.20;8.60;;;;;;;10.11;32.22;100916.55;223673;1270;22475;-70
2022/03/21 10:53:42;;;;;;;11.30;7.30;;;;;;;10.19;31.79;100912.73;223825;1269;24338;-69
2022/03/21 10:58:47;;;;;;;14.10;8.90;;;;;;;10.32;31.55;100905.92;223651;1269;23393;-70
2022/03/21 11:03:57;;;;;;;11.30;8.20;;;;;;;10.45;31.30;100897.39;223567;1270;23215;-70
2022/03/21 11:09:01;;;;;;;12.60;9.00;;;;;;;10.56;31.32;100895.85;224045;1270;23342;-70
2022/03/21 11:14:03;;;;;;;13.10;8.80;;;;;;;10.70;31.08;100884.77;221390;1270;24035;-70
2022/03/21 11:19:07;;;;;;;13.00;9.10;;;;;;;10.81;30.97;100881.95;221552;1269;24944;-70
2022/03/21 11:24:11;;;;;;;14.40;9.80;;;;;;;10.96;31.00;100881.38;221554;1270;25213;-69
2022/03/21 11:29:26;;;;;;;10.80;7.80;;;;;;;11.16;30.76;100874.02;221727;1270;22536;-69
2022/03/21 11:34:57;;;;;;;11.60;8.00;;;;;;;11.24;29.70;100867.41;221739;1270;22500;-69
2022/03/21 11:40:35;;;;;;;9.30;6.50;;;;;;;11.25;29.61;100860.40;221695;1270;22868;-69
2022/03/21 11:45:38;;;;;;;18.40;6.80;;;;;;;11.44;29.49;100852.34;223478;1268;22523;-69
2022/03/21 11:50:41;;;;;;;7.60;5.90;;;;;;;11.59;28.82;100840.73;221568;1269;22717;-71
2022/03/21 11:55:45;;;;;;;7.90;5.70;;;;;;;11.76;28.15;100829.75;223747;1270;22532;-72
2022/03/21 12:01:16;;;;;;;8.10;6.00;;;;;;;11.97;27.96;100827.45;223670;1268;24222;-72
2022/03/21 12:06:45;;;;;;;9.80;6.20;;;;;;;12.10;27.94;100818.43;223908;1268;22559;-73
2022/03/21 12:11:48;;;;;;;7.90;5.60;;;;;;;12.27;27.84;100812.48;223653;1268;22611;-72
2022/03/21 12:17:00;;;;;;;9.50;6.50;;;;;;;12.37;27.51;100807.13;223835;1268;22570;-72
2022/03/21 12:22:28;;;;;;;10.70;8.00;;;;;;;12.44;27.65;100801.84;223424;1271;23425;-72
2022/03/21 12:27:33;;;;;;;9.70;7.10;;;;;;;12.55;27.75;100796.52;223904;1268;22742;-74
2022/03/21 12:32:48;;;;;;;9.80;7.20;;;;;;;12.61;27.03;100787.52;223832;1270;22581;-71
2022/03/21 12:37:50;;;;;;;9.80;7.00;;;;;;;12.66;27.48;100781.76;223862;1270;22574;-71
2022/03/21 12:42:57;;;;;;;11.70;7.00;;;;;;;12.80;27.46;100780.98;223788;1270;22549;-70
2022/03/21 12:48:07;;;;;;;9.40;7.30;;;;;;;12.88;27.10;100769.81;226151;1269;22692;-70
2022/03/21 12:53:19;;;;;;;11.70;7.80;;;;;;;12.86;27.06;100763.45;222795;1270;24191;-70
2022/03/21 12:58:23;;;;;;;11.00;7.90;;;;;;;12.85;26.99;100763.34;221779;1269;24995;-70
2022/03/21 13:03:26;;;;;;;10.30;7.50;;;;;;;12.87;26.97;100760.98;221783;1268;22612;-70
2022/03/21 13:14:03;;;;;;;15.20;8.30;;;;;;;12.95;26.97;100748.09;221646;1270;22565;-71
2022/03/21 13:19:09;;;;;;;12.40;8.10;;;;;;;13.03;27.05;100740.27;224181;1269;22558;-71
2022/03/21 13:24:14;;;;;;;9.50;7.60;;;;;;;13.11;26.94;100740.96;223788;1269;22611;-71
2022/03/21 13:29:16;;;;;;;10.70;7.80;;;;;;;13.12;26.68;100740.31;223649;1270;22588;-72
2022/03/21 13:34:18;;;;;;;14.20;8.30;;;;;;;13.14;26.67;100737.65;223850;1269;22575;-71
2022/03/21 13:39:26;;;;;;;9.70;7.50;;;;;;;13.13;26.59;100736.67;223839;1270;23110;-71
2022/03/21 13:44:31;;;;;;;10.20;7.50;;;;;;;13.10;26.56;100731.98;223857;1270;22645;-71
2022/03/21 13:49:52;;;;;;;11.80;7.60;;;;;;;13.14;26.48;100730.76;223564;1270;22660;-71
2022/03/21 13:54:56;;;;;;;9.70;7.20;;;;;;;13.17;26.48;100723.19;227212;1269;22479;-72
2022/03/21 14:00:08;;;;;;;12.40;7.40;;;;;;;13.20;26.30;100722.95;226669;1269;23960;-72
2022/03/21 14:05:28;;;;;;;9.50;6.80;;;;;;;13.22;25.98;100716.92;224990;1269;22551;-70
2022/03/21 14:10:38;;;;;;;11.00;7.10;;;;;;;13.23;25.91;100716.40;223685;1269;22537;-71
2022/03/21 14:15:44;;;;;;;10.50;7.20;;;;;;;13.24;26.08;100712.48;223667;1270;22917;-72
2022/03/21 14:20:47;;;;;;;10.80;7.50;;;;;;;13.24;26.10;100710.38;226855;1269;25309;-71
2022/03/21 14:31:12;;;;;;;10.00;7.10;;;;;;;13.26;26.23;100697.55;223758;1269;22569;-71
2022/03/21 14:36:15;;;;;;;9.40;7.00;;;;;;;13.23;26.16;100695.52;223636;1269;25373;-71
2022/03/21 14:41:19;;;;;;;9.80;6.50;;;;;;;13.20;26.33;100686.99;223803;1269;22537;-70
2022/03/21 14:46:22;;;;;;;10.70;7.70;;;;;;;13.19;26.22;100682.94;223585;1270;22719;-71
2022/03/21 14:51:27;;;;;;;10.10;6.90;;;;;;;13.12;26.14;100681.17;226598;1269;22596;-72
2022/03/21 14:56:30;;;;;;;9.30;6.90;;;;;;;13.09;26.30;100675.89;223794;1268;22555;-72
2022/03/21 15:01:37;;;;;;;9.00;7.00;;;;;;;13.06;26.27;100672.15;223304;1270;22634;-72
2022/03/21 15:06:40;;;;;;;9.60;7.30;;;;;;;13.03;26.34;100669.55;223152;1270;22583;-71
2022/03/21 15:11:44;;;;;;;11.20;7.20;;;;;;;12.98;26.39;100667.09;222745;1268;25273;-71
2022/03/21 15:16:51;;;;;;;11.40;7.30;;;;;;;12.93;26.35;100664.64;222649;1270;22563;-72
2022/03/21 15:22:14;;;;;;;9.10;7.50;;;;;;;12.87;26.48;100658.94;222634;1270;25486;-71
2022/03/21 15:27:17;;;;;;;10.40;7.30;;;;;;;12.81;26.55;100658.36;222460;1270;22577;-71
2022/03/21 15:32:19;;;;;;;9.80;7.40;;;;;;;12.78;26.54;100659.14;222769;1269;22560;-71
2022/03/21 15:42:57;;;;;;;12.40;8.30;;;;;;;12.65;26.72;100659.63;222695;1270;22721;-71
2022/03/21 15:48:24;;;;;;;11.90;8.40;;;;;;;12.56;26.72;100654.59;221183;1270;22469;-72
2022/03/21 15:53:27;;;;;;;10.40;7.50;;;;;;;12.41;26.84;100648.60;222690;1268;22526;-72
2022/03/21 15:58:30;;;;;;;13.70;8.40;;;;;;;12.24;26.83;100650.96;222688;1270;22572;-72
2022/03/21 16:03:33;;;;;;;12.40;8.60;;;;;;;12.06;26.95;100648.90;222824;1270;22552;-70
2022/03/21 16:08:36;;;;;;;15.00;10.00;;;;;;;11.88;27.27;100650.50;222629;1269;22708;-72
2022/03/21 16:13:40;;;;;;;18.70;9.80;;;;;;;11.69;27.59;100649.46;222512;1270;22589;-71
2022/03/21 16:18:42;;;;;;;15.30;9.70;;;;;;;11.52;27.54;100648.12;222725;1270;22834;-71
2022/03/21 16:23:46;;;;;;;17.20;9.70;;;;;;;11.36;27.87;100646.67;222451;1270;22659;-71
2022/03/21 16:28:48;;;;;;;14.00;10.30;;;;;;;11.16;28.33;100648.28;222623;1270;22574;-71
2022/03/21 16:33:51;;;;;;;20.30;12.90;;;;;;;10.94;28.76;100647.94;222452;1270;22561;-71
2022/03/21 16:38:54;;;;;;;20.70;10.50;;;;;;;10.70;29.63;100652.88;220997;1271;22608;-71
2022/03/21 16:44:16;;;;;;;18.80;11.70;;;;;;;10.43;29.94;100649.14;222583;1270;25374;-70
2022/03/21 16:49:19;;;;;;;19.60;10.70;;;;;;;10.15;30.29;100649.20;222448;1270;22740;-70
2022/03/21 16:54:22;;;;;;;17.60;10.20;;;;;;;9.91;30.37;100655.76;222383;1270;22566;-72
2022/03/21 16:59:26;;;;;;;17.90;10.20;;;;;;;9.69;30.40;100656.27;222476;1270;23721;-71
2022/03/21 17:04:31;;;;;;;14.90;10.00;;;;;;;9.48;30.41;100658.36;222551;1270;25217;-71
2022/03/21 17:09:35;;;;;;;17.60;10.60;;;;;;;9.28;30.57;100660.91;222550;1270;25462;-71
2022/03/21 17:14:44;;;;;;;24.70;12.90;;;;;;;9.03;30.92;100659.27;222437;1270;23372;-72
2022/03/21 17:25:24;;;;;;;22.90;11.00;;;;;;;8.42;31.77;100662.42;222667;1270;22551;-70
2022/03/21 17:30:30;;;;;;;21.90;12.70;;;;;;;8.12;32.18;100667.72;222723;1267;22526;-71
2022/03/21 17:35:33;;;;;;;23.10;11.80;;;;;;;7.83;32.82;100668.39;222636;1269;22561;-71
2022/03/21 17:40:38;;;;;;;22.60;11.90;;;;;;;7.56;33.20;100663.70;221026;1270;22555;-71
2022/03/21 17:45:45;;;;;;;35.50;17.70;;;;;;;7.36;33.27;100669.44;222777;1269;22688;-71
2022/03/21 17:50:48;;;;;;;34.20;18.10;;;;;;;7.21;33.79;100671.14;222900;1270;22747;-71
2022/03/21 17:55:54;;;;;;;33.40;18.00;;;;;;;7.07;34.14;100669.88;222703;1270;22546;-70
2022/03/21 18:01:01;;;;;;;33.20;18.60;;;;;;;6.93;34.49;100671.73;222643;1270;25351;-71
2022/03/21 18:06:09;;;;;;;36.60;20.90;;;;;;;6.80;34.67;100673.02;222671;1270;23862;-71
2022/03/21 18:11:18;;;;;;;56.10;31.80;;;;;;;6.73;34.42;100677.84;222568;1270;22543;-71
2022/03/21 18:16:23;;;;;;;40.80;21.60;;;;;;;6.65;34.55;100679.98;222764;1270;22711;-70
2022/03/21 18:21:36;;;;;;;;;;;;;;;;;;;;;
2022/03/21 18:26:42;;;;;;;37.00;20.60;;;;;;;6.51;34.94;100685.96;222739;1269;23847;-70
2022/03/21 18:31:45;;;;;;;35.30;19.30;;;;;;;6.45;35.28;100686.70;222718;1270;22551;-71
2022/03/21 18:36:55;;;;;;;38.30;21.00;;;;;;;6.36;35.37;100687.53;222724;1269;22603;-71
2022/03/21 18:41:57;;;;;;;36.50;20.00;;;;;;;6.20;35.57;100687.98;222685;1269;22559;-71
2022/03/21 18:47:02;;;;;;;35.40;21.10;;;;;;;5.98;36.28;100686.63;222655;1269;24170;-70
2022/03/21 18:52:06;;;;;;;40.10;21.70;;;;;;;5.79;36.63;100684.14;221586;1270;22472;-71
2022/03/21 18:57:22;;;;;;;43.90;22.10;;;;;;;5.67;37.11;100691.26;221011;1270;24148;-71
2022/03/21 19:02:25;;;;;;;40.10;22.30;;;;;;;5.50;37.11;100693.83;222551;1270;22833;-71
2022/03/21 19:07:27;;;;;;;39.40;22.30;;;;;;;5.38;37.25;100694.22;222658;1269;22625;-71
2022/03/21 19:12:29;;;;;;;43.30;23.30;;;;;;;5.34;37.30;100700.84;222642;1270;22535;-71
2022/03/21 19:17:33;;;;;;;45.30;23.20;;;;;;;5.37;37.52;100699.36;222330;1270;22678;-72
2022/03/21 19:22:35;;;;;;;44.20;22.60;;;;;;;5.39;37.71;100700.88;222595;1270;22549;-71
2022/03/21 19:27:52;;;;;;;38.40;20.70;;;;;;;5.39;38.01;100707.63;222039;1270;471873;-72
2022/03/21 19:33:03;;;;;;;39.40;20.60;;;;;;;5.37;38.29;100706.77;222578;1270;23810;-71
2022/03/21 19:38:06;;;;;;;38.20;20.20;;;;;;;5.37;38.51;100710.20;222526;1270;22492;-72
2022/03/21 19:43:34;;;;;;;37.60;21.30;;;;;;;5.36;38.48;100708.77;222565;1270;22563;-71
2022/03/21 19:48:46;;;;;;;40.70;20.80;;;;;;;5.31;38.47;100709.02;223043;1270;22570;-72
2022/03/21 19:53:58;;;;;;;40.20;22.20;;;;;;;5.24;38.59;100711.12;222681;1270;25831;-71
2022/03/21 19:59:00;;;;;;;39.40;21.50;;;;;;;5.17;38.79;100709.92;222604;1270;22477;-71
2022/03/21 20:04:03;;;;;;;37.40;20.30;;;;;;;5.13;38.81;100713.04;222703;1270;22960;-71
2022/03/21 20:09:05;;;;;;;43.90;22.90;;;;;;;5.01;38.87;100715.45;222670;1270;22558;-72
2022/03/21 20:14:08;;;;;;;49.40;24.40;;;;;;;4.87;39.07;100714.17;222419;1271;25356;-70
2022/03/21 20:19:18;;;;;;;55.10;25.10;;;;;;;4.69;39.35;100718.84;222719;1269;22575;-71
2022/03/21 20:24:21;;;;;;;48.30;25.10;;;;;;;4.53;39.53;100721.91;222578;1269;23118;-71
2022/03/21 20:29:23;;;;;;;49.10;23.80;;;;;;;4.40;39.59;100723.20;222715;1269;25888;-72
2022/03/21 20:34:28;;;;;;;45.30;22.60;;;;;;;4.30;39.78;100720.86;222531;1271;25309;-71
2022/03/21 20:39:31;;;;;;;46.40;24.00;;;;;;;4.28;39.74;100722.31;222775;1270;22703;-71
2022/03/21 20:44:37;;;;;;;47.40;22.00;;;;;;;4.30;39.72;100721.04;222808;1270;25248;-70
2022/03/21 20:49:40;;;;;;;45.30;22.20;;;;;;;4.28;39.77;100717.14;222524;1269;22564;-71
2022/03/21 20:54:43;;;;;;;43.20;21.30;;;;;;;4.32;39.96;100723.19;222576;1270;22726;-72
2022/03/21 20:59:46;;;;;;;40.40;20.00;;;;;;;4.33;40.26;100724.50;222674;1271;24221;-72
2022/03/21 21:04:49;;;;;;;42.90;19.90;;;;;;;4.31;40.33;100722.70;223015;1270;22532;-72
2022/03/21 21:15:18;;;;;;;39.10;20.40;;;;;;;4.12;40.55;100728.39;222634;1270;25207;-71
2022/03/21 21:20:29;;;;;;;42.00;19.70;;;;;;;4.05;40.46;100725.02;222484;1270;22583;-72
2022/03/21 21:25:43;;;;;;;46.60;20.30;;;;;;;3.96;40.62;100722.85;222367;1271;22474;-71
2022/03/21 21:30:52;;;;;;;43.90;19.80;;;;;;;3.94;40.90;100720.27;222573;1271;22607;-71
2022/03/21 21:35:58;;;;;;;44.40;21.20;;;;;;;3.88;40.94;100714.28;221541;1271;22466;-71
2022/03/21 21:41:02;;;;;;;46.30;21.80;;;;;;;3.79;41.16;100713.13;222592;1271;22808;-72
2022/03/21 21:46:07;;;;;;;48.60;21.90;;;;;;;3.71;41.21;100716.02;222552;1270;22575;-72
2022/03/21 21:51:19;;;;;;;43.80;22.00;;;;;;;3.67;41.54;100709.88;222377;1270;24172;-72
2022/03/21 21:56:22;;;;;;;49.40;21.70;;;;;;;3.67;41.85;100710.86;222549;1270;23158;-71
2022/03/21 22:01:25;;;;;;;45.10;22.50;;;;;;;3.58;41.92;100706.81;222674;1270;22557;-70
2022/03/21 22:06:31;;;;;;;44.90;21.90;;;;;;;3.45;42.03;100705.83;221233;1270;24176;-70
2022/03/21 22:11:45;;;;;;;42.00;21.70;;;;;;;3.32;42.38;100699.27;221279;1268;25319;-71
2022/03/21 22:16:48;;;;;;;41.50;20.00;;;;;;;3.21;42.56;100696.41;222824;1267;25382;-70
2022/03/21 22:21:54;;;;;;;35.90;18.20;;;;;;;3.17;42.85;100699.07;222874;1268;22991;-71
2022/03/21 22:27:00;;;;;;;37.80;19.50;;;;;;;3.21;42.70;100702.36;222690;1271;22479;-71
2022/03/21 22:32:03;;;;;;;39.10;20.00;;;;;;;3.27;42.48;100701.84;222669;1270;24217;-71
2022/03/21 22:37:05;;;;;;;38.40;20.00;;;;;;;3.32;42.12;100699.27;222486;1271;23313;-71
2022/03/21 22:47:34;;;;;;;39.50;18.90;;;;;;;3.50;41.94;100698.81;222503;1270;22546;-72
2022/03/21 22:52:37;;;;;;;38.10;19.60;;;;;;;3.54;41.89;100700.11;222615;1271;22563;-71
2022/03/21 22:57:42;;;;;;;36.20;19.40;;;;;;;3.47;41.95;100701.16;222626;1271;23036;-71
2022/03/21 23:02:47;;;;;;;37.80;18.10;;;;;;;3.31;42.26;100704.91;222769;1271;25315;-71
2022/03/21 23:07:49;;;;;;;37.80;18.60;;;;;;;3.17;42.56;100702.61;222821;1270;25377;-71
2022/03/21 23:12:51;;;;;;;38.00;19.60;;;;;;;3.10;42.49;100705.91;222507;1270;22463;-72
2022/03/21 23:17:54;;;;;;;46.10;19.20;;;;;;;3.04;42.75;100703.98;222713;1270;22728;-70
2022/03/21 23:22:57;;;;;;;35.30;18.30;;;;;;;2.93;43.13;100707.64;222804;1270;25352;-71
2022/03/21 23:28:10;;;;;;;34.50;18.20;;;;;;;2.76;42.99;100708.34;222648;1270;22552;-70
2022/03/21 23:33:21;;;;;;;35.80;17.20;;;;;;;2.56;43.35;100705.16;222344;1270;22581;-70
2022/03/21 23:38:23;;;;;;;37.90;18.80;;;;;;;2.40;43.64;100705.89;222491;1270;22551;-71
2022/03/21 23:43:29;;;;;;;38.60;19.00;;;;;;;2.26;43.74;100700.85;222627;1270;22575;-71
2022/03/21 23:48:32;;;;;;;41.40;19.30;;;;;;;2.21;43.79;100694.50;222576;1270;22725;-71
2022/03/21 23:53:34;;;;;;;39.20;20.10;;;;;;;2.29;43.79;100690.36;222374;1270;22609;-71